Time;durP1;ratioP1;P1;durP2;ratioP2;P2;SDS_P1;SDS_P2;PMS_P1;PMS_P2;Temp;Humidity;BMP_temperature;BMP_pressure;BME280_temperature;BME280_humidity;BME280_pressure;Samples;Min_cycle;Max_cycle;Signal;HPM_P1;HPM_P2
2022/03/20 14:58:27;;;;;;;2.20;1.95;;;;;;;5.83;33.91;100676.09;5070586;28;20382;-78
2022/03/20 15:00:56;;;;;;;5.88;1.20;;;;;;;5.83;32.05;100687.06;5068893;28;20028;-79
2022/03/20 15:03:27;;;;;;;0.50;0.50;;;;;;;5.84;32.21;100674.94;5068613;28;20020;-79
2022/03/20 15:05:52;;;;;;;0.70;0.70;;;;;;;5.63;32.13;100651.34;5066982;28;20024;-81
2022/03/20 15:13:45;;;;;;;0.50;0.50;;;;;;;5.98;32.05;100658.84;5069529;28;20040;-76
2022/03/20 15:16:11;;;;;;;1.15;1.15;;;;;;;5.96;32.11;100650.19;5067927;28;20025;-77
2022/03/20 15:18:36;;;;;;;1.02;1.02;;;;;;;6.08;31.04;100677.50;5068496;28;20029;-77
2022/03/20 15:21:02;;;;;;;0.20;0.20;;;;;;;5.91;31.42;100626.53;5067871;28;20046;-77
2022/03/20 15:23:27;;;;;;;3.15;2.20;;;;;;;5.88;31.99;100635.50;5067540;28;20025;-78
2022/03/20 15:25:52;;;;;;;2.35;2.15;;;;;;;5.86;31.20;100623.25;5067354;28;20020;-77
2022/03/20 15:28:18;;;;;;;0.90;0.88;;;;;;;6.11;33.93;100671.28;5067205;28;20470;-79
2022/03/20 15:30:43;;;;;;;2.58;2.38;;;;;;;6.00;32.37;100656.53;5067230;28;20024;-77
2022/03/20 15:33:09;;;;;;;11.02;2.92;;;;;;;5.78;32.45;100647.00;5067369;28;20395;-78
2022/03/20 15:35:34;;;;;;;3.67;3.38;;;;;;;5.71;33.20;100625.69;5067263;28;20027;-76
2022/03/20 15:38:00;;;;;;;6.95;4.90;;;;;;;5.78;34.13;100613.28;5067551;28;20023;-76
2022/03/20 15:40:26;;;;;;;3.38;3.08;;;;;;;5.72;33.45;100619.06;5067634;28;20028;-77
2022/03/20 15:42:52;;;;;;;0.60;0.60;;;;;;;5.63;31.86;100625.88;5067690;28;20035;-77
2022/03/20 15:45:18;;;;;;;1.25;1.25;;;;;;;5.65;33.42;100624.38;5067593;28;20488;-79
2022/03/20 15:47:44;;;;;;;1.67;1.58;;;;;;;5.57;34.74;100619.06;5067531;28;20051;-79
2022/03/20 15:50:10;;;;;;;1.27;1.17;;;;;;;5.71;33.93;100649.56;5067435;28;20473;-77
2022/03/20 15:52:36;;;;;;;1.10;1.00;;;;;;;5.64;32.80;100672.13;5067406;28;20079;-80
2022/03/20 15:55:02;;;;;;;0.98;0.93;;;;;;;5.76;33.09;100653.97;5067382;28;20029;-78
2022/03/20 15:57:28;;;;;;;0.73;0.73;;;;;;;5.62;36.29;100632.50;5066679;28;20090;-78
2022/03/20 15:59:53;;;;;;;1.08;1.08;;;;;;;5.72;36.23;100679.41;5067149;28;20113;-77
2022/03/20 16:02:19;;;;;;;3.53;3.22;;;;;;;5.63;36.01;100665.06;5066913;28;20024;-78
2022/03/20 16:04:44;;;;;;;0.35;0.35;;;;;;;5.63;33.31;100672.47;5067156;28;20028;-75
2022/03/20 16:07:10;;;;;;;2.60;2.40;;;;;;;5.05;33.55;100583.75;5066593;28;20021;-78
2022/03/20 16:09:35;;;;;;;2.10;2.00;;;;;;;5.65;34.32;100673.72;5054932;28;20032;-78
2022/03/20 16:12:01;;;;;;;10.02;3.97;;;;;;;5.33;33.61;100618.13;5053792;28;20028;-79
2022/03/20 16:14:27;;;;;;;3.20;2.95;;;;;;;5.44;33.86;100643.03;5053914;28;20596;-79
2022/03/20 16:16:53;;;;;;;3.92;2.67;;;;;;;5.20;33.73;100605.66;5053998;28;20033;-77
2022/03/20 16:19:18;;;;;;;1.70;1.60;;;;;;;5.02;33.39;100612.63;5053886;28;20032;-75
2022/03/20 16:21:44;;;;;;;1.38;1.27;;;;;;;4.83;34.47;100594.13;5053822;28;20383;-75
2022/03/20 16:29:37;;;;;;;1.90;0.55;;;;;;;4.35;47.97;100651.84;5055511;28;20392;-76
2022/03/20 16:32:14;;;;;;;3.13;1.02;;;;;;;4.28;48.23;100671.59;5053589;28;20025;-77
2022/03/20 16:34:44;;;;;;;0.50;0.50;;;;;;;3.49;49.72;100593.00;5053867;28;20025;-75
2022/03/20 16:37:10;;;;;;;5.78;2.35;;;;;;;3.30;49.48;100598.25;5053996;28;20082;-78
2022/03/20 16:39:36;;;;;;;2.35;2.25;;;;;;;3.49;50.71;100650.38;5053450;28;20025;-77
2022/03/20 16:42:02;;;;;;;1.23;1.05;;;;;;;3.03;51.39;100627.00;5053393;28;20384;-74
2022/03/20 16:44:30;;;;;;;0.98;0.60;;;;;;;2.92;52.72;100623.91;5053354;28;20392;-77
2022/03/20 16:46:56;;;;;;;0.20;0.20;;;;;;;2.68;52.30;100623.84;5053664;28;20024;-77
2022/03/20 16:49:22;;;;;;;0.40;0.40;;;;;;;2.95;52.93;100669.66;5053349;28;20068;-76
2022/03/20 16:51:47;;;;;;;0.70;0.70;;;;;;;2.45;53.40;100651.50;5053151;28;20028;-76
2022/03/20 16:54:14;;;;;;;0.93;0.93;;;;;;;2.88;53.62;100720.47;5053268;28;20036;-78
2022/03/20 16:56:40;;;;;;;3.60;1.50;;;;;;;2.20;57.01;100648.97;5052635;28;20558;-79
2022/03/20 16:59:05;;;;;;;3.63;2.65;;;;;;;2.26;55.67;100662.09;5053214;28;20017;-75
2022/03/20 17:01:31;;;;;;;4.03;3.75;;;;;;;2.27;54.81;100676.53;5053309;28;20032;-76
2022/03/20 17:03:56;;;;;;;7.53;4.05;;;;;;;2.18;56.20;100643.06;5052612;28;20461;-77
2022/03/20 17:06:23;;;;;;;0.75;0.75;;;;;;;2.01;54.73;100655.69;5053326;28;20487;-80
2022/03/20 17:08:49;;;;;;;4.13;3.20;;;;;;;2.36;53.67;100716.22;5054057;28;20021;-78
2022/03/20 17:11:17;;;;;;;0.93;0.93;;;;;;;2.52;53.52;100745.66;5053950;28;20432;-76
2022/03/20 17:13:44;;;;;;;1.30;1.23;;;;;;;2.83;47.75;100735.13;5052758;28;20020;-79
2022/03/20 17:16:11;;;;;;;0.30;0.30;;;;;;;3.08;43.56;100750.44;5052792;28;20041;-78
2022/03/20 17:18:37;;;;;;;1.85;1.75;;;;;;;3.63;39.98;100760.16;5052692;28;20397;-75
2022/03/20 17:21:03;;;;;;;0.30;0.30;;;;;;;3.56;40.60;100735.31;5051611;28;20031;-80
2022/03/20 17:23:28;;;;;;;0.80;0.80;;;;;;;3.33;40.57;100699.41;5053432;28;20036;-80
2022/03/20 17:25:55;;;;;;;1.75;1.65;;;;;;;3.67;41.55;100761.91;5052126;28;20021;-79
2022/03/20 17:28:23;;;;;;;2.05;1.95;;;;;;;3.40;42.50;100751.56;5052583;28;20079;-76
2022/03/20 17:30:48;;;;;;;1.02;1.02;;;;;;;3.20;42.56;100747.75;5052065;28;20031;-75
2022/03/20 17:33:14;;;;;;;0.32;0.32;;;;;;;3.31;42.37;100778.22;5051790;28;20395;-78
2022/03/20 17:35:42;;;;;;;0.98;0.98;;;;;;;3.05;43.13;100767.53;5051698;28;20059;-77
2022/03/20 17:38:08;;;;;;;0.93;0.93;;;;;;;3.17;43.46;100791.34;5052931;28;20017;-78
2022/03/20 17:40:34;;;;;;;0.73;0.73;;;;;;;2.96;43.10;100772.25;5051976;28;20090;-79
2022/03/20 17:43:00;;;;;;;0.73;0.73;;;;;;;2.85;43.17;100785.50;5051893;28;20486;-79
2022/03/20 17:45:28;;;;;;;2.38;0.60;;;;;;;2.59;43.98;100737.75;5051965;28;20487;-77
2022/03/20 17:47:57;;;;;;;0.52;0.52;;;;;;;2.53;44.02;100745.34;5052017;28;20495;-77
2022/03/20 17:50:23;;;;;;;2.65;2.45;;;;;;;2.34;44.29;100737.59;5052371;28;20441;-79
2022/03/20 17:52:49;;;;;;;0.95;0.95;;;;;;;2.59;44.49;100784.13;5052477;28;20111;-77
2022/03/20 17:55:14;;;;;;;1.98;1.88;;;;;;;2.21;44.18;100729.66;5052025;28;20465;-77
2022/03/20 17:57:40;;;;;;;2.88;1.38;;;;;;;2.41;44.70;100784.22;5051673;28;20138;-77
2022/03/20 18:00:07;;;;;;;2.22;2.15;;;;;;;2.57;44.51;100800.03;5051865;28;20075;-77
2022/03/20 18:08:02;;;;;;;1.33;1.33;;;;;;;2.44;45.80;100821.78;5052862;28;20028;-77
2022/03/20 18:10:34;;;;;;;0.40;0.40;;;;;;;2.33;45.52;100815.09;5051675;28;20029;-77
2022/03/20 18:13:01;;;;;;;3.05;1.95;;;;;;;2.24;46.20;100832.63;5051701;28;20020;-77
2022/03/20 18:15:29;;;;;;;1.20;1.10;;;;;;;1.97;47.12;100796.50;5051589;28;20029;-78
2022/03/20 18:17:55;;;;;;;1.00;0.70;;;;;;;1.73;46.07;100777.22;5052980;28;20437;-77
2022/03/20 18:20:25;;;;;;;1.35;1.35;;;;;;;1.85;47.10;100809.22;5051706;28;20062;-77
2022/03/20 18:22:53;;;;;;;1.30;1.30;;;;;;;1.78;47.40;100822.56;5051725;28;20021;-75
2022/03/20 18:25:20;;;;;;;0.75;0.75;;;;;;;1.59;51.75;100839.28;5051433;28;20067;-77
2022/03/20 18:27:47;;;;;;;0.90;0.90;;;;;;;1.16;55.34;100829.25;5051410;28;20441;-77
2022/03/20 18:30:14;;;;;;;1.08;1.08;;;;;;;0.82;58.59;100840.13;5051134;28;20063;-76
2022/03/20 18:32:41;;;;;;;0.38;0.38;;;;;;;0.52;59.94;100822.81;5051432;28;20481;-77
2022/03/20 18:35:12;;;;;;;0.90;0.90;;;;;;;0.56;61.80;100848.25;5051315;28;20029;-75
2022/03/20 18:37:39;;;;;;;0.40;0.40;;;;;;;0.28;62.96;100830.59;5051535;28;20021;-79
2022/03/20 18:40:06;;;;;;;2.97;2.72;;;;;;;0.25;61.61;100852.94;5051260;28;20512;-77
2022/03/20 18:42:32;;;;;;;1.75;1.65;;;;;;;0.05;63.20;100845.38;5051143;28;20047;-77
2022/03/20 18:44:58;;;;;;;4.15;2.28;;;;;;;0.15;61.44;100866.84;5052565;28;20065;-77
2022/03/20 18:47:24;;;;;;;0.40;0.40;;;;;;;0.18;60.14;100850.69;5051610;28;20028;-77
2022/03/20 18:49:50;;;;;;;0.60;0.60;;;;;;;0.08;56.41;100823.81;5051131;28;20040;-77
2022/03/20 18:52:17;;;;;;;11.57;10.18;;;;;;;0.52;54.34;100866.31;5050973;28;20377;-77
2022/03/20 18:54:44;;;;;;;10.30;6.45;;;;;;;0.79;54.20;100855.16;5051136;28;20025;-76
2022/03/20 18:57:11;;;;;;;5.57;3.42;;;;;;;0.91;52.96;100870.84;5050680;28;20146;-76
2022/03/20 18:59:38;;;;;;;2.95;2.75;;;;;;;0.61;55.79;100822.81;5051247;28;20025;-77
2022/03/20 19:02:08;;;;;;;1.35;1.25;;;;;;;0.82;55.16;100853.72;5051329;28;20078;-77
2022/03/20 19:04:35;;;;;;;5.95;4.68;;;;;;;-143.85;100.00;70650.75;5052388;28;20021;-76
2022/03/20 19:07:01;;;;;;;12.18;5.57;;;;;;;-143.85;100.00;70650.75;5051176;28;20033;-76
2022/03/20 19:09:27;;;;;;;2.00;1.90;;;;;;;-143.85;100.00;70650.75;5052189;28;20472;-77
2022/03/20 19:11:53;;;;;;;2.17;0.98;;;;;;;-143.85;100.00;70650.75;5052082;28;20673;-77
2022/03/20 19:14:21;;;;;;;2.45;2.35;;;;;;;-143.85;100.00;70650.75;5051053;28;20017;-77
2022/03/20 19:16:47;;;;;;;1.20;1.20;;;;;;;-143.85;100.00;70650.75;5051127;28;20029;-76
2022/03/20 19:19:13;;;;;;;2.88;2.10;;;;;;;-143.85;100.00;70650.75;5050822;28;20029;-77
2022/03/20 19:21:39;;;;;;;2.20;0.70;;;;;;;-143.85;100.00;70650.75;5050819;28;20102;-77
2022/03/20 19:24:05;;;;;;;1.35;1.25;;;;;;;-143.85;100.00;70650.75;5050767;28;20047;-76
2022/03/20 19:26:31;;;;;;;1.58;1.55;;;;;;;-143.85;100.00;70650.75;5050796;28;20029;-76
2022/03/20 19:28:57;;;;;;;0.40;0.40;;;;;;;-143.85;100.00;70650.75;5051610;28;20083;-75
2022/03/20 19:31:23;;;;;;;1.30;1.30;;;;;;;-143.85;100.00;70650.75;5052836;28;20025;-76
2022/03/20 19:39:53;;;;;;;0.70;0.70;;;;;;;-143.85;100.00;70650.75;5051314;28;20384;-76
2022/03/20 19:42:03;;;;;;;0.45;0.45;;;;;;;-143.85;100.00;70650.75;5052682;28;20035;-77
2022/03/20 19:44:29;;;;;;;1.45;1.23;;;;;;;-143.85;100.00;70650.75;5053669;28;20400;-76
2022/03/20 19:46:54;;;;;;;0.57;0.57;;;;;;;-143.85;100.00;70650.75;5055314;28;20462;-77
2022/03/20 19:49:19;;;;;;;1.10;1.10;;;;;;;-143.85;100.00;70650.75;5057155;28;20472;-75
2022/03/20 19:51:45;;;;;;;0.45;0.45;;;;;;;-143.85;100.00;70650.75;5054661;28;20028;-77
2022/03/20 19:54:11;;;;;;;5.60;3.55;;;;;;;-143.85;100.00;70650.75;5055542;28;20453;-76
2022/03/20 19:56:36;;;;;;;2.42;1.15;;;;;;;-143.85;100.00;70650.75;5054986;28;20493;-76
2022/03/20 19:59:02;;;;;;;0.80;0.80;;;;;;;-143.85;100.00;70650.75;5054124;28;20025;-76
2022/03/20 20:01:27;;;;;;;2.85;2.60;;;;;;;-143.85;100.00;70650.75;5054243;28;20028;-78
2022/03/20 20:03:53;;;;;;;1.40;1.30;;;;;;;-143.85;100.00;70650.75;5053803;28;20027;-77
2022/03/20 20:06:19;;;;;;;1.88;1.77;;;;;;;-143.85;100.00;70650.75;5054039;28;20025;-76
2022/03/20 20:08:45;;;;;;;3.63;0.93;;;;;;;-143.85;100.00;70650.75;5054278;28;20056;-77
2022/03/20 20:11:10;;;;;;;2.83;2.53;;;;;;;-143.85;100.00;70650.75;5053960;28;20032;-76
2022/03/20 20:16:19;;;;;;;2.13;2.03;;;;;;;-143.85;100.00;70650.75;5055355;28;20617;-76
2022/03/20 20:18:45;;;;;;;2.58;2.47;;;;;;;-143.85;100.00;70650.75;5053998;28;20025;-76
2022/03/20 20:21:11;;;;;;;2.35;2.17;;;;;;;-143.85;100.00;70650.75;5054200;28;20119;-77
2022/03/20 20:23:37;;;;;;;2.78;2.58;;;;;;;-143.85;100.00;70650.75;5053827;28;20024;-77
2022/03/20 20:26:02;;;;;;;4.78;4.40;;;;;;;-143.85;100.00;70650.75;5053850;28;20400;-77
2022/03/20 20:28:28;;;;;;;2.80;2.63;;;;;;;-143.85;100.00;70650.75;5053796;28;20016;-78
2022/03/20 20:30:54;;;;;;;2.20;1.50;;;;;;;-143.85;100.00;70650.75;5053621;28;20469;-76
2022/03/20 20:33:19;;;;;;;1.10;1.10;;;;;;;-143.85;100.00;70650.75;5053706;28;20017;-77
2022/03/20 20:35:44;;;;;;;1.63;1.52;;;;;;;-143.85;100.00;70650.75;5054144;28;20032;-79
2022/03/20 20:38:10;;;;;;;1.85;1.75;;;;;;;-143.85;100.00;70650.75;5053367;28;20469;-76
2022/03/20 20:40:36;;;;;;;1.27;1.27;;;;;;;-143.85;100.00;70650.75;5053395;28;20480;-76
2022/03/20 20:43:01;;;;;;;1.05;1.05;;;;;;;-143.85;100.00;70650.75;5053502;28;20044;-77
2022/03/20 20:45:28;;;;;;;1.42;1.40;;;;;;;-143.85;100.00;70650.75;5053343;28;20021;-78
2022/03/20 20:47:54;;;;;;;0.65;0.65;;;;;;;-143.85;100.00;70650.75;5054840;28;20028;-76
2022/03/20 20:50:19;;;;;;;0.88;0.88;;;;;;;-143.85;100.00;70650.75;5053443;28;20029;-78
2022/03/20 20:52:46;;;;;;;1.88;1.80;;;;;;;-143.85;100.00;70650.75;5052542;28;20461;-80
2022/03/20 20:55:11;;;;;;;0.70;0.70;;;;;;;-143.85;100.00;70650.75;5052970;28;20458;-78
2022/03/20 20:57:37;;;;;;;2.05;1.95;;;;;;;-143.85;100.00;70650.75;5052479;28;20135;-79
2022/03/20 21:00:03;;;;;;;1.13;1.08;;;;;;;-143.85;100.00;70650.75;5052619;28;20017;-78
2022/03/20 21:02:29;;;;;;;3.22;1.77;;;;;;;-143.85;100.00;70650.75;5052786;28;20016;-77
2022/03/20 21:04:55;;;;;;;1.48;1.40;;;;;;;-143.85;100.00;70650.75;5053250;28;20108;-76
2022/03/20 21:12:49;;;;;;;1.52;1.42;;;;;;;-143.85;100.00;70650.75;5043023;28;20389;-78
2022/03/20 21:15:14;;;;;;;1.98;1.88;;;;;;;-143.85;100.00;70650.75;5032436;28;20025;-77
2022/03/20 21:17:40;;;;;;;0.47;0.47;;;;;;;-143.85;100.00;70650.75;5032492;28;20032;-80
2022/03/20 21:20:09;;;;;;;3.22;2.70;;;;;;;-143.85;100.00;70650.75;5033623;28;20049;-78
2022/03/20 21:22:36;;;;;;;1.90;1.80;;;;;;;-143.85;100.00;70650.75;5033877;28;20021;-76
2022/03/20 21:25:02;;;;;;;0.88;0.88;;;;;;;-143.85;100.00;70650.75;5032823;28;20036;-79
2022/03/20 21:27:28;;;;;;;1.05;0.98;;;;;;;-143.85;100.00;70650.75;5032361;28;20033;-77
2022/03/20 21:29:53;;;;;;;0.60;0.60;;;;;;;-143.85;100.00;70650.75;5032253;28;20025;-78
2022/03/20 21:32:19;;;;;;;1.35;1.25;;;;;;;-143.85;100.00;70650.75;5032297;28;20060;-76
2022/03/20 21:34:44;;;;;;;0.63;0.63;;;;;;;-143.85;100.00;70650.75;5032343;28;20033;-76
2022/03/20 21:37:10;;;;;;;0.85;0.85;;;;;;;-143.85;100.00;70650.75;5032039;28;20083;-77
2022/03/20 21:39:35;;;;;;;1.17;1.15;;;;;;;-143.85;100.00;70650.75;5032134;28;20384;-76
2022/03/20 21:42:04;;;;;;;0.70;0.70;;;;;;;-143.85;100.00;70650.75;5032200;28;20476;-76
2022/03/20 21:44:30;;;;;;;1.98;0.82;;;;;;;-143.85;100.00;70650.75;5031864;28;20026;-78
2022/03/20 21:46:56;;;;;;;1.77;1.67;;;;;;;-143.85;100.00;70650.75;5032508;28;20037;-78
2022/03/20 21:49:21;;;;;;;1.30;1.30;;;;;;;-143.85;100.00;70650.75;5032090;28;20025;-77
2022/03/20 21:52:00;;;;;;;1.05;1.05;;;;;;;-143.85;100.00;70650.75;5032017;28;20090;-78
2022/03/20 21:54:26;;;;;;;1.00;0.98;;;;;;;-143.85;100.00;70650.75;5033798;28;20022;-77
2022/03/20 21:56:52;;;;;;;0.50;0.50;;;;;;;-143.85;100.00;70650.75;5031921;28;20547;-78
2022/03/20 21:59:18;;;;;;;0.50;0.50;;;;;;;-143.85;100.00;70650.75;5032405;28;20024;-80
2022/03/20 22:01:44;;;;;;;10.60;2.38;;;;;;;-143.85;100.00;70650.75;5032049;28;20029;-78
2022/03/20 22:04:09;;;;;;;0.40;0.40;;;;;;;-143.85;100.00;70650.75;5032007;28;20032;-79
2022/03/20 22:06:37;;;;;;;0.82;0.82;;;;;;;-143.85;100.00;70650.75;5032296;28;20029;-78
2022/03/20 22:09:02;;;;;;;0.55;0.55;;;;;;;-143.85;100.00;70650.75;5031943;28;20114;-78
2022/03/20 22:11:28;;;;;;;1.73;1.67;;;;;;;-143.85;100.00;70650.75;5031813;28;20075;-78
2022/03/20 22:13:53;;;;;;;2.35;2.25;;;;;;;-143.85;100.00;70650.75;5031946;28;20469;-78
2022/03/20 22:16:21;;;;;;;0.40;0.40;;;;;;;-143.85;100.00;70650.75;5032080;28;20017;-77
2022/03/20 22:18:47;;;;;;;1.23;1.17;;;;;;;-143.85;100.00;70650.75;5032146;28;20028;-78
2022/03/20 22:21:12;;;;;;;0.93;0.93;;;;;;;-143.85;100.00;70650.75;5032305;28;20116;-77
2022/03/20 22:23:38;;;;;;;0.80;0.80;;;;;;;-143.85;100.00;70650.75;5031666;28;20028;-78
2022/03/20 22:26:04;;;;;;;1.55;1.13;;;;;;;-143.85;100.00;70650.75;5031690;28;20461;-79
2022/03/20 22:28:32;;;;;;;0.50;0.50;;;;;;;-143.85;100.00;70650.75;5031642;28;20028;-78
2022/03/20 22:30:57;;;;;;;2.80;2.70;;;;;;;-143.85;100.00;70650.75;5031271;28;20037;-79
2022/03/20 22:33:23;;;;;;;1.00;1.00;;;;;;;-143.85;100.00;70650.75;5031535;28;20086;-77
2022/03/20 22:38:32;;;;;;;1.30;1.20;;;;;;;-143.85;100.00;70650.75;5032692;28;20024;-78
2022/03/20 22:40:59;;;;;;;0.73;0.73;;;;;;;-143.85;100.00;70650.75;5031460;28;20033;-77
2022/03/20 22:43:30;;;;;;;0.40;0.40;;;;;;;-143.85;100.00;70650.75;5031989;28;20040;-78
2022/03/20 22:45:56;;;;;;;2.50;1.92;;;;;;;-143.85;100.00;70650.75;5031245;28;20022;-80
2022/03/20 22:51:09;;;;;;;1.85;1.75;;;;;;;-143.85;100.00;70650.75;5033203;28;20036;-79
2022/03/20 22:53:35;;;;;;;1.23;1.20;;;;;;;-143.85;100.00;70650.75;5031890;28;20372;-78
2022/03/20 22:56:01;;;;;;;0.38;0.38;;;;;;;-143.85;100.00;70650.75;5031288;28;20032;-81
2022/03/20 22:58:28;;;;;;;0.50;0.50;;;;;;;-143.85;100.00;70650.75;5031553;28;20018;-78
2022/03/20 23:00:57;;;;;;;0.32;0.32;;;;;;;-143.85;100.00;70650.75;5031934;28;20021;-81
2022/03/20 23:03:23;;;;;;;0.70;0.70;;;;;;;-143.85;100.00;70650.75;5031282;28;20063;-77
2022/03/20 23:05:49;;;;;;;5.82;0.77;;;;;;;-143.85;100.00;70650.75;5031723;28;20064;-78
2022/03/20 23:08:14;;;;;;;0.40;0.40;;;;;;;-143.85;100.00;70650.75;5031240;28;20091;-78
2022/03/20 23:10:40;;;;;;;1.27;1.27;;;;;;;-143.85;100.00;70650.75;5030951;28;20037;-80
2022/03/20 23:13:05;;;;;;;1.13;1.02;;;;;;;-143.85;100.00;70650.75;5031148;28;20021;-78
2022/03/20 23:15:31;;;;;;;0.40;0.40;;;;;;;-143.85;100.00;70650.75;5030778;28;20079;-79
2022/03/20 23:17:56;;;;;;;1.75;1.65;;;;;;;-143.85;100.00;70650.75;5031096;28;20021;-81
2022/03/20 23:20:22;;;;;;;0.45;0.45;;;;;;;-143.85;100.00;70650.75;5035311;28;20021;-79
2022/03/20 23:22:48;;;;;;;0.65;0.65;;;;;;;-143.85;100.00;70650.75;5035510;28;20039;-78
2022/03/20 23:25:20;;;;;;;0.95;0.95;;;;;;;-143.85;100.00;70650.75;5034973;28;20030;-80
2022/03/20 23:27:46;;;;;;;7.45;3.22;;;;;;;-143.85;100.00;70650.75;5036181;28;20112;-77
2022/03/20 23:30:12;;;;;;;1.10;1.10;;;;;;;-143.85;100.00;70650.75;5035459;28;20091;-80
2022/03/20 23:32:38;;;;;;;1.52;1.42;;;;;;;-143.85;100.00;70650.75;5034957;28;20025;-80
2022/03/20 23:35:04;;;;;;;1.20;1.20;;;;;;;-143.85;100.00;70650.75;5034884;28;20056;-77
2022/03/20 23:37:30;;;;;;;2.75;2.15;;;;;;;-143.85;100.00;70650.75;5034574;28;20021;-78
2022/03/20 23:39:56;;;;;;;1.73;1.67;;;;;;;-143.85;100.00;70650.75;5034734;28;20021;-79
2022/03/20 23:45:06;;;;;;;0.70;0.70;;;;;;;-143.85;100.00;70650.75;5036477;28;20099;-78
2022/03/20 23:47:32;;;;;;;0.40;0.40;;;;;;;-143.85;100.00;70650.75;5035810;28;20018;-79
2022/03/20 23:49:57;;;;;;;0.55;0.55;;;;;;;-143.85;100.00;70650.75;5034668;28;20032;-79
2022/03/20 23:52:23;;;;;;;0.55;0.55;;;;;;;-143.85;100.00;70650.75;5034812;28;20496;-78
2022/03/20 23:54:48;;;;;;;0.40;0.40;;;;;;;-143.85;100.00;70650.75;5034806;28;20021;-79
2022/03/20 23:57:14;;;;;;;1.20;1.20;;;;;;;-143.85;100.00;70650.75;5034316;28;20045;-77
2022/03/20 23:59:39;;;;;;;1.40;1.30;;;;;;;-143.85;100.00;70650.75;5034134;28;20432;-79
